sensor_id;sensor_type;location;lat;lon;timestamp;P1;durP1;ratioP1;P2;durP2;ratioP2
11222;SDS011;5668;52.012;8.724;2023-12-20T00:00:01;9.93;;;8.00;;
11222;SDS011;5668;52.012;8.724;2023-12-20T00:02:29;8.53;;;7.63;;
11222;SDS011;5668;52.012;8.724;2023-12-20T00:04:56;9.10;;;6.93;;
11222;SDS011;5668;52.012;8.724;2023-12-20T00:07:24;8.13;;;7.10;;
11222;SDS011;5668;52.012;8.724;2023-12-20T00:09:52;10.07;;;8.07;;
11222;SDS011;5668;52.012;8.724;2023-12-20T00:12:19;8.60;;;7.30;;
11222;SDS011;5668;52.012;8.724;2023-12-20T00:14:46;8.37;;;7.10;;
11222;SDS011;5668;52.012;8.724;2023-12-20T00:17:13;8.40;;;7.03;;
11222;SDS011;5668;52.012;8.724;2023-12-20T00:19:40;8.03;;;6.80;;
11222;SDS011;5668;52.012;8.724;2023-12-20T00:22:07;9.30;;;7.13;;
11222;SDS011;5668;52.012;8.724;2023-12-20T00:24:36;7.80;;;7.00;;
11222;SDS011;5668;52.012;8.724;2023-12-20T00:27:03;10.33;;;7.07;;
11222;SDS011;5668;52.012;8.724;2023-12-20T00:29:31;6.93;;;6.13;;
11222;SDS011;5668;52.012;8.724;2023-12-20T00:31:58;7.57;;;5.60;;
11222;SDS011;5668;52.012;8.724;2023-12-20T00:34:25;7.03;;;5.50;;
11222;SDS011;5668;52.012;8.724;2023-12-20T00:36:52;8.27;;;4.90;;
11222;SDS011;5668;52.012;8.724;2023-12-20T00:39:20;8.17;;;5.43;;
11222;SDS011;5668;52.012;8.724;2023-12-20T00:41:48;6.27;;;4.50;;
11222;SDS011;5668;52.012;8.724;2023-12-20T00:44:15;6.63;;;4.77;;
11222;SDS011;5668;52.012;8.724;2023-12-20T00:46:42;6.43;;;4.50;;
11222;SDS011;5668;52.012;8.724;2023-12-20T00:49:10;5.90;;;4.30;;
11222;SDS011;5668;52.012;8.724;2023-12-20T00:51:37;7.20;;;4.70;;
11222;SDS011;5668;52.012;8.724;2023-12-20T00:54:04;5.67;;;4.50;;
11222;SDS011;5668;52.012;8.724;2023-12-20T00:56:30;5.80;;;4.20;;
11222;SDS011;5668;52.012;8.724;2023-12-20T00:58:59;6.07;;;3.80;;
11222;SDS011;5668;52.012;8.724;2023-12-20T01:01:26;8.47;;;3.40;;
11222;SDS011;5668;52.012;8.724;2023-12-20T01:03:53;8.00;;;3.67;;
11222;SDS011;5668;52.012;8.724;2023-12-20T01:06:20;4.97;;;3.47;;
11222;SDS011;5668;52.012;8.724;2023-12-20T01:08:48;5.30;;;3.30;;
11222;SDS011;5668;52.012;8.724;2023-12-20T01:11:15;4.47;;;3.43;;
11222;SDS011;5668;52.012;8.724;2023-12-20T01:13:42;4.73;;;3.20;;
11222;SDS011;5668;52.012;8.724;2023-12-20T01:16:11;7.10;;;3.73;;
11222;SDS011;5668;52.012;8.724;2023-12-20T01:18:38;6.53;;;3.93;;
11222;SDS011;5668;52.012;8.724;2023-12-20T01:21:05;5.73;;;3.60;;
11222;SDS011;5668;52.012;8.724;2023-12-20T01:23:32;7.23;;;3.40;;
11222;SDS011;5668;52.012;8.724;2023-12-20T01:26:00;5.07;;;3.37;;
11222;SDS011;5668;52.012;8.724;2023-12-20T01:28:27;3.83;;;3.17;;
11222;SDS011;5668;52.012;8.724;2023-12-20T01:30:54;5.57;;;3.13;;
11222;SDS011;5668;52.012;8.724;2023-12-20T01:33:23;7.63;;;3.00;;
11222;SDS011;5668;52.012;8.724;2023-12-20T01:35:50;5.27;;;3.27;;
11222;SDS011;5668;52.012;8.724;2023-12-20T01:38:17;8.83;;;3.23;;
11222;SDS011;5668;52.012;8.724;2023-12-20T01:40:45;8.90;;;3.00;;
11222;SDS011;5668;52.012;8.724;2023-12-20T01:43:12;8.20;;;3.33;;
11222;SDS011;5668;52.012;8.724;2023-12-20T01:45:40;5.83;;;3.40;;
11222;SDS011;5668;52.012;8.724;2023-12-20T01:48:07;7.30;;;3.40;;
11222;SDS011;5668;52.012;8.724;2023-12-20T01:50:37;5.90;;;3.30;;
11222;SDS011;5668;52.012;8.724;2023-12-20T01:53:05;6.33;;;3.70;;
11222;SDS011;5668;52.012;8.724;2023-12-20T01:55:34;4.43;;;3.10;;
11222;SDS011;5668;52.012;8.724;2023-12-20T01:58:03;7.60;;;3.10;;
11222;SDS011;5668;52.012;8.724;2023-12-20T02:00:31;6.40;;;2.70;;
11222;SDS011;5668;52.012;8.724;2023-12-20T02:03:00;6.00;;;2.67;;
11222;SDS011;5668;52.012;8.724;2023-12-20T02:05:28;5.20;;;2.60;;
11222;SDS011;5668;52.012;8.724;2023-12-20T02:07:57;4.77;;;2.77;;
11222;SDS011;5668;52.012;8.724;2023-12-20T02:10:25;7.00;;;3.20;;
11222;SDS011;5668;52.012;8.724;2023-12-20T02:12:53;7.63;;;2.90;;
11222;SDS011;5668;52.012;8.724;2023-12-20T02:15:20;6.53;;;2.50;;
11222;SDS011;5668;52.012;8.724;2023-12-20T02:17:47;4.87;;;2.80;;
11222;SDS011;5668;52.012;8.724;2023-12-20T02:20:15;6.93;;;3.00;;
11222;SDS011;5668;52.012;8.724;2023-12-20T02:22:44;5.10;;;2.63;;
11222;SDS011;5668;52.012;8.724;2023-12-20T02:25:11;5.27;;;2.80;;
11222;SDS011;5668;52.012;8.724;2023-12-20T02:27:38;3.57;;;2.60;;
11222;SDS011;5668;52.012;8.724;2023-12-20T02:30:06;3.97;;;2.63;;
11222;SDS011;5668;52.012;8.724;2023-12-20T02:32:34;6.03;;;3.10;;
11222;SDS011;5668;52.012;8.724;2023-12-20T02:35:01;5.90;;;3.13;;
11222;SDS011;5668;52.012;8.724;2023-12-20T02:37:29;6.43;;;2.87;;
11222;SDS011;5668;52.012;8.724;2023-12-20T02:39:57;6.33;;;2.60;;
11222;SDS011;5668;52.012;8.724;2023-12-20T02:42:24;4.90;;;2.37;;
11222;SDS011;5668;52.012;8.724;2023-12-20T02:44:52;4.63;;;2.47;;
11222;SDS011;5668;52.012;8.724;2023-12-20T02:47:19;3.90;;;2.43;;
11222;SDS011;5668;52.012;8.724;2023-12-20T02:49:46;5.07;;;2.53;;
11222;SDS011;5668;52.012;8.724;2023-12-20T02:52:14;9.10;;;2.60;;
11222;SDS011;5668;52.012;8.724;2023-12-20T02:54:41;6.03;;;2.53;;
11222;SDS011;5668;52.012;8.724;2023-12-20T02:57:10;6.33;;;2.60;;
11222;SDS011;5668;52.012;8.724;2023-12-20T02:59:37;5.03;;;2.47;;
11222;SDS011;5668;52.012;8.724;2023-12-20T03:02:04;6.60;;;2.40;;
11222;SDS011;5668;52.012;8.724;2023-12-20T03:04:31;7.00;;;2.70;;
11222;SDS011;5668;52.012;8.724;2023-12-20T03:06:58;7.23;;;2.60;;
11222;SDS011;5668;52.012;8.724;2023-12-20T03:09:26;7.57;;;2.77;;
11222;SDS011;5668;52.012;8.724;2023-12-20T03:11:53;7.60;;;2.90;;
11222;SDS011;5668;52.012;8.724;2023-12-20T03:14:21;7.40;;;3.00;;
11222;SDS011;5668;52.012;8.724;2023-12-20T03:16:48;6.10;;;3.40;;
11222;SDS011;5668;52.012;8.724;2023-12-20T03:19:16;6.63;;;3.10;;
11222;SDS011;5668;52.012;8.724;2023-12-20T03:21:44;7.77;;;3.50;;
11222;SDS011;5668;52.012;8.724;2023-12-20T03:24:12;6.73;;;3.20;;
11222;SDS011;5668;52.012;8.724;2023-12-20T03:26:39;6.80;;;3.47;;
11222;SDS011;5668;52.012;8.724;2023-12-20T03:29:06;8.60;;;3.73;;
11222;SDS011;5668;52.012;8.724;2023-12-20T03:31:35;9.50;;;3.63;;
11222;SDS011;5668;52.012;8.724;2023-12-20T03:34:02;10.13;;;4.07;;
11222;SDS011;5668;52.012;8.724;2023-12-20T03:36:29;8.93;;;4.00;;
11222;SDS011;5668;52.012;8.724;2023-12-20T03:38:57;8.13;;;3.73;;
11222;SDS011;5668;52.012;8.724;2023-12-20T03:41:24;7.53;;;4.43;;
11222;SDS011;5668;52.012;8.724;2023-12-20T03:43:51;8.37;;;4.60;;
11222;SDS011;5668;52.012;8.724;2023-12-20T03:46:18;9.83;;;4.33;;
11222;SDS011;5668;52.012;8.724;2023-12-20T03:48:47;9.07;;;4.80;;
11222;SDS011;5668;52.012;8.724;2023-12-20T03:51:14;11.17;;;4.57;;
11222;SDS011;5668;52.012;8.724;2023-12-20T03:53:41;9.40;;;4.90;;
11222;SDS011;5668;52.012;8.724;2023-12-20T03:56:08;11.53;;;4.93;;
11222;SDS011;5668;52.012;8.724;2023-12-20T03:58:36;8.63;;;5.23;;
11222;SDS011;5668;52.012;8.724;2023-12-20T04:01:03;9.83;;;4.57;;
11222;SDS011;5668;52.012;8.724;2023-12-20T04:03:35;8.33;;;4.20;;
11222;SDS011;5668;52.012;8.724;2023-12-20T04:06:03;8.63;;;4.17;;
11222;SDS011;5668;52.012;8.724;2023-12-20T04:08:31;11.73;;;4.30;;
11222;SDS011;5668;52.012;8.724;2023-12-20T04:10:58;7.53;;;4.20;;
11222;SDS011;5668;52.012;8.724;2023-12-20T04:13:25;10.63;;;4.37;;
11222;SDS011;5668;52.012;8.724;2023-12-20T04:15:52;10.80;;;4.77;;
11222;SDS011;5668;52.012;8.724;2023-12-20T04:18:20;11.13;;;5.07;;
11222;SDS011;5668;52.012;8.724;2023-12-20T04:20:47;13.47;;;5.10;;
11222;SDS011;5668;52.012;8.724;2023-12-20T04:23:15;12.00;;;5.43;;
11222;SDS011;5668;52.012;8.724;2023-12-20T04:25:43;9.53;;;5.03;;
11222;SDS011;5668;52.012;8.724;2023-12-20T04:28:10;9.00;;;4.63;;
11222;SDS011;5668;52.012;8.724;2023-12-20T04:30:37;12.37;;;5.70;;
11222;SDS011;5668;52.012;8.724;2023-12-20T04:33:04;10.07;;;5.20;;
11222;SDS011;5668;52.012;8.724;2023-12-20T04:35:31;9.07;;;4.90;;
11222;SDS011;5668;52.012;8.724;2023-12-20T04:37:59;11.73;;;5.63;;
11222;SDS011;5668;52.012;8.724;2023-12-20T04:40:27;6.50;;;4.40;;
11222;SDS011;5668;52.012;8.724;2023-12-20T04:42:54;13.10;;;4.40;;
11222;SDS011;5668;52.012;8.724;2023-12-20T04:45:22;11.97;;;5.47;;
11222;SDS011;5668;52.012;8.724;2023-12-20T04:47:49;12.13;;;5.10;;
11222;SDS011;5668;52.012;8.724;2023-12-20T04:50:17;11.33;;;4.60;;
11222;SDS011;5668;52.012;8.724;2023-12-20T04:52:46;9.30;;;4.40;;
11222;SDS011;5668;52.012;8.724;2023-12-20T04:55:13;9.83;;;4.70;;
11222;SDS011;5668;52.012;8.724;2023-12-20T04:57:42;13.20;;;4.97;;
11222;SDS011;5668;52.012;8.724;2023-12-20T05:00:10;12.90;;;5.47;;
11222;SDS011;5668;52.012;8.724;2023-12-20T05:02:39;9.50;;;5.03;;
11222;SDS011;5668;52.012;8.724;2023-12-20T05:05:06;11.23;;;4.63;;
11222;SDS011;5668;52.012;8.724;2023-12-20T05:07:34;10.27;;;4.43;;
11222;SDS011;5668;52.012;8.724;2023-12-20T05:10:02;9.07;;;4.43;;
11222;SDS011;5668;52.012;8.724;2023-12-20T05:12:31;11.70;;;5.07;;
11222;SDS011;5668;52.012;8.724;2023-12-20T05:14:59;13.77;;;4.70;;
11222;SDS011;5668;52.012;8.724;2023-12-20T05:17:26;11.27;;;4.73;;
11222;SDS011;5668;52.012;8.724;2023-12-20T05:19:54;10.87;;;4.40;;
11222;SDS011;5668;52.012;8.724;2023-12-20T05:22:21;10.93;;;4.50;;
11222;SDS011;5668;52.012;8.724;2023-12-20T05:24:48;10.93;;;4.13;;
11222;SDS011;5668;52.012;8.724;2023-12-20T05:27:15;14.70;;;4.33;;
11222;SDS011;5668;52.012;8.724;2023-12-20T05:29:42;8.73;;;4.20;;
11222;SDS011;5668;52.012;8.724;2023-12-20T05:32:11;12.77;;;4.57;;
11222;SDS011;5668;52.012;8.724;2023-12-20T05:34:38;13.40;;;4.73;;
11222;SDS011;5668;52.012;8.724;2023-12-20T05:37:05;11.20;;;4.20;;
11222;SDS011;5668;52.012;8.724;2023-12-20T05:39:32;12.03;;;4.30;;
11222;SDS011;5668;52.012;8.724;2023-12-20T05:42:00;10.53;;;4.83;;
11222;SDS011;5668;52.012;8.724;2023-12-20T05:44:27;13.10;;;4.53;;
11222;SDS011;5668;52.012;8.724;2023-12-20T05:46:54;11.60;;;4.20;;
11222;SDS011;5668;52.012;8.724;2023-12-20T05:49:23;9.90;;;4.30;;
11222;SDS011;5668;52.012;8.724;2023-12-20T05:51:50;11.13;;;4.27;;
11222;SDS011;5668;52.012;8.724;2023-12-20T05:54:17;9.97;;;4.43;;
11222;SDS011;5668;52.012;8.724;2023-12-20T05:56:44;10.80;;;4.60;;
11222;SDS011;5668;52.012;8.724;2023-12-20T05:59:11;10.33;;;4.80;;
11222;SDS011;5668;52.012;8.724;2023-12-20T06:01:38;10.43;;;4.20;;
11222;SDS011;5668;52.012;8.724;2023-12-20T06:04:06;11.63;;;5.00;;
11222;SDS011;5668;52.012;8.724;2023-12-20T06:06:34;12.43;;;4.50;;
11222;SDS011;5668;52.012;8.724;2023-12-20T06:09:07;11.37;;;4.23;;
11222;SDS011;5668;52.012;8.724;2023-12-20T06:11:35;9.00;;;4.70;;
11222;SDS011;5668;52.012;8.724;2023-12-20T06:14:02;10.80;;;4.27;;
11222;SDS011;5668;52.012;8.724;2023-12-20T06:16:30;15.60;;;4.50;;
11222;SDS011;5668;52.012;8.724;2023-12-20T06:18:57;14.10;;;5.07;;
11222;SDS011;5668;52.012;8.724;2023-12-20T06:21:24;11.27;;;4.87;;
11222;SDS011;5668;52.012;8.724;2023-12-20T06:23:52;13.70;;;4.73;;
11222;SDS011;5668;52.012;8.724;2023-12-20T06:26:20;12.47;;;5.23;;
11222;SDS011;5668;52.012;8.724;2023-12-20T06:28:47;12.50;;;5.40;;
11222;SDS011;5668;52.012;8.724;2023-12-20T06:31:14;12.37;;;4.97;;
11222;SDS011;5668;52.012;8.724;2023-12-20T06:33:42;13.67;;;5.70;;
11222;SDS011;5668;52.012;8.724;2023-12-20T06:36:10;13.87;;;5.70;;
11222;SDS011;5668;52.012;8.724;2023-12-20T06:38:39;10.63;;;4.87;;
11222;SDS011;5668;52.012;8.724;2023-12-20T06:41:08;12.73;;;5.47;;
11222;SDS011;5668;52.012;8.724;2023-12-20T06:43:39;10.43;;;5.43;;
11222;SDS011;5668;52.012;8.724;2023-12-20T06:46:06;12.53;;;5.50;;
11222;SDS011;5668;52.012;8.724;2023-12-20T06:48:33;11.63;;;4.87;;
11222;SDS011;5668;52.012;8.724;2023-12-20T06:51:01;16.53;;;6.73;;
11222;SDS011;5668;52.012;8.724;2023-12-20T06:53:28;14.80;;;5.40;;
11222;SDS011;5668;52.012;8.724;2023-12-20T06:55:55;10.67;;;4.80;;
11222;SDS011;5668;52.012;8.724;2023-12-20T06:58:24;10.50;;;5.00;;
11222;SDS011;5668;52.012;8.724;2023-12-20T07:00:51;11.20;;;5.40;;
11222;SDS011;5668;52.012;8.724;2023-12-20T07:03:18;11.23;;;5.13;;
11222;SDS011;5668;52.012;8.724;2023-12-20T07:05:45;12.30;;;5.57;;
11222;SDS011;5668;52.012;8.724;2023-12-20T07:08:13;9.57;;;5.90;;
11222;SDS011;5668;52.012;8.724;2023-12-20T07:10:40;17.13;;;5.40;;
11222;SDS011;5668;52.012;8.724;2023-12-20T07:13:07;11.90;;;5.17;;
11222;SDS011;5668;52.012;8.724;2023-12-20T07:15:36;11.53;;;4.97;;
11222;SDS011;5668;52.012;8.724;2023-12-20T07:18:03;12.70;;;5.93;;
11222;SDS011;5668;52.012;8.724;2023-12-20T07:20:31;14.30;;;5.67;;
11222;SDS011;5668;52.012;8.724;2023-12-20T07:22:59;13.10;;;5.60;;
11222;SDS011;5668;52.012;8.724;2023-12-20T07:25:26;11.00;;;5.30;;
11222;SDS011;5668;52.012;8.724;2023-12-20T07:27:53;11.63;;;4.73;;
11222;SDS011;5668;52.012;8.724;2023-12-20T07:30:21;14.07;;;5.67;;
11222;SDS011;5668;52.012;8.724;2023-12-20T07:32:49;10.63;;;4.90;;
11222;SDS011;5668;52.012;8.724;2023-12-20T07:35:17;10.20;;;5.57;;
11222;SDS011;5668;52.012;8.724;2023-12-20T07:37:44;9.83;;;5.17;;
11222;SDS011;5668;52.012;8.724;2023-12-20T07:40:12;10.80;;;4.70;;
11222;SDS011;5668;52.012;8.724;2023-12-20T07:42:42;13.30;;;5.50;;
11222;SDS011;5668;52.012;8.724;2023-12-20T07:45:09;14.80;;;5.57;;
11222;SDS011;5668;52.012;8.724;2023-12-20T07:47:36;11.27;;;4.70;;
11222;SDS011;5668;52.012;8.724;2023-12-20T07:50:06;14.87;;;5.77;;
11222;SDS011;5668;52.012;8.724;2023-12-20T07:52:35;11.00;;;5.50;;
11222;SDS011;5668;52.012;8.724;2023-12-20T07:55:02;12.87;;;4.67;;
11222;SDS011;5668;52.012;8.724;2023-12-20T07:57:30;11.97;;;4.30;;
11222;SDS011;5668;52.012;8.724;2023-12-20T07:59:57;11.43;;;4.77;;
11222;SDS011;5668;52.012;8.724;2023-12-20T08:02:24;11.30;;;4.63;;
11222;SDS011;5668;52.012;8.724;2023-12-20T08:04:51;11.00;;;4.10;;
11222;SDS011;5668;52.012;8.724;2023-12-20T08:07:20;14.13;;;4.60;;
11222;SDS011;5668;52.012;8.724;2023-12-20T08:09:47;8.40;;;4.47;;
11222;SDS011;5668;52.012;8.724;2023-12-20T08:12:14;12.43;;;4.20;;
11222;SDS011;5668;52.012;8.724;2023-12-20T08:14:42;12.77;;;4.70;;
11222;SDS011;5668;52.012;8.724;2023-12-20T08:17:09;11.00;;;4.20;;
11222;SDS011;5668;52.012;8.724;2023-12-20T08:19:37;12.20;;;4.50;;
11222;SDS011;5668;52.012;8.724;2023-12-20T08:22:04;13.27;;;4.30;;
11222;SDS011;5668;52.012;8.724;2023-12-20T08:24:33;11.07;;;4.30;;
11222;SDS011;5668;52.012;8.724;2023-12-20T08:27:00;13.17;;;4.60;;
11222;SDS011;5668;52.012;8.724;2023-12-20T08:29:27;11.13;;;4.00;;
11222;SDS011;5668;52.012;8.724;2023-12-20T08:31:55;9.77;;;3.60;;
11222;SDS011;5668;52.012;8.724;2023-12-20T08:34:22;10.70;;;3.93;;
11222;SDS011;5668;52.012;8.724;2023-12-20T08:36:49;12.33;;;5.00;;
11222;SDS011;5668;52.012;8.724;2023-12-20T08:39:17;10.57;;;4.43;;
11222;SDS011;5668;52.012;8.724;2023-12-20T08:41:45;10.30;;;3.83;;
11222;SDS011;5668;52.012;8.724;2023-12-20T08:44:13;11.67;;;4.27;;
11222;SDS011;5668;52.012;8.724;2023-12-20T08:46:40;11.57;;;3.83;;
11222;SDS011;5668;52.012;8.724;2023-12-20T08:49:07;11.03;;;5.10;;
11222;SDS011;5668;52.012;8.724;2023-12-20T08:51:35;9.10;;;3.97;;
11222;SDS011;5668;52.012;8.724;2023-12-20T08:54:05;13.37;;;5.07;;
11222;SDS011;5668;52.012;8.724;2023-12-20T08:56:33;9.77;;;4.70;;
11222;SDS011;5668;52.012;8.724;2023-12-20T08:59:02;9.57;;;4.17;;
11222;SDS011;5668;52.012;8.724;2023-12-20T09:01:29;10.03;;;4.40;;
11222;SDS011;5668;52.012;8.724;2023-12-20T09:03:56;12.93;;;4.57;;
11222;SDS011;5668;52.012;8.724;2023-12-20T09:06:23;11.60;;;4.73;;
11222;SDS011;5668;52.012;8.724;2023-12-20T09:08:51;9.27;;;4.70;;
11222;SDS011;5668;52.012;8.724;2023-12-20T09:11:18;10.73;;;4.90;;
11222;SDS011;5668;52.012;8.724;2023-12-20T09:13:45;13.40;;;5.17;;
11222;SDS011;5668;52.012;8.724;2023-12-20T09:16:14;11.00;;;4.90;;
11222;SDS011;5668;52.012;8.724;2023-12-20T09:18:41;13.23;;;5.63;;
11222;SDS011;5668;52.012;8.724;2023-12-20T09:21:08;8.87;;;5.13;;
11222;SDS011;5668;52.012;8.724;2023-12-20T09:23:35;10.93;;;5.40;;
11222;SDS011;5668;52.012;8.724;2023-12-20T09:26:03;14.30;;;5.77;;
11222;SDS011;5668;52.012;8.724;2023-12-20T09:28:31;12.43;;;5.53;;
11222;SDS011;5668;52.012;8.724;2023-12-20T09:31:02;13.77;;;5.67;;
11222;SDS011;5668;52.012;8.724;2023-12-20T09:33:31;11.80;;;6.27;;
11222;SDS011;5668;52.012;8.724;2023-12-20T09:35:58;11.97;;;6.47;;
11222;SDS011;5668;52.012;8.724;2023-12-20T09:38:26;11.27;;;5.90;;
11222;SDS011;5668;52.012;8.724;2023-12-20T09:40:53;11.93;;;6.20;;
11222;SDS011;5668;52.012;8.724;2023-12-20T09:43:21;14.50;;;6.23;;
11222;SDS011;5668;52.012;8.724;2023-12-20T09:45:53;9.07;;;5.93;;
11222;SDS011;5668;52.012;8.724;2023-12-20T09:48:25;10.93;;;6.20;;
11222;SDS011;5668;52.012;8.724;2023-12-20T09:50:55;14.80;;;6.97;;
11222;SDS011;5668;52.012;8.724;2023-12-20T09:53:23;14.77;;;6.67;;
11222;SDS011;5668;52.012;8.724;2023-12-20T09:55:55;13.97;;;7.20;;
11222;SDS011;5668;52.012;8.724;2023-12-20T09:58:24;14.77;;;6.70;;
11222;SDS011;5668;52.012;8.724;2023-12-20T10:00:51;18.67;;;7.50;;
11222;SDS011;5668;52.012;8.724;2023-12-20T10:03:22;14.53;;;7.60;;
11222;SDS011;5668;52.012;8.724;2023-12-20T10:05:52;14.40;;;6.93;;
11222;SDS011;5668;52.012;8.724;2023-12-20T10:08:22;14.33;;;7.43;;
11222;SDS011;5668;52.012;8.724;2023-12-20T10:10:51;15.90;;;7.03;;
11222;SDS011;5668;52.012;8.724;2023-12-20T10:13:18;12.20;;;6.57;;
11222;SDS011;5668;52.012;8.724;2023-12-20T10:15:45;16.93;;;7.10;;
11222;SDS011;5668;52.012;8.724;2023-12-20T10:18:12;15.40;;;6.50;;
11222;SDS011;5668;52.012;8.724;2023-12-20T10:20:40;16.43;;;5.93;;
11222;SDS011;5668;52.012;8.724;2023-12-20T10:23:09;14.97;;;6.27;;
11222;SDS011;5668;52.012;8.724;2023-12-20T10:25:37;15.27;;;6.30;;
11222;SDS011;5668;52.012;8.724;2023-12-20T10:28:11;11.23;;;5.70;;
11222;SDS011;5668;52.012;8.724;2023-12-20T10:30:40;9.97;;;5.50;;
11222;SDS011;5668;52.012;8.724;2023-12-20T10:33:07;9.40;;;5.37;;
11222;SDS011;5668;52.012;8.724;2023-12-20T10:35:35;9.60;;;5.13;;
11222;SDS011;5668;52.012;8.724;2023-12-20T10:38:04;10.60;;;5.33;;
11222;SDS011;5668;52.012;8.724;2023-12-20T10:40:34;12.73;;;6.20;;
11222;SDS011;5668;52.012;8.724;2023-12-20T10:43:02;14.40;;;5.07;;
11222;SDS011;5668;52.012;8.724;2023-12-20T10:45:31;11.23;;;5.33;;
11222;SDS011;5668;52.012;8.724;2023-12-20T10:47:58;14.63;;;4.97;;
11222;SDS011;5668;52.012;8.724;2023-12-20T10:50:26;11.20;;;5.30;;
11222;SDS011;5668;52.012;8.724;2023-12-20T10:52:55;13.63;;;4.70;;
11222;SDS011;5668;52.012;8.724;2023-12-20T10:55:23;11.50;;;5.13;;
11222;SDS011;5668;52.012;8.724;2023-12-20T10:57:52;10.30;;;4.37;;
11222;SDS011;5668;52.012;8.724;2023-12-20T11:00:21;10.90;;;5.07;;
11222;SDS011;5668;52.012;8.724;2023-12-20T11:02:50;11.10;;;4.37;;
11222;SDS011;5668;52.012;8.724;2023-12-20T11:05:23;9.40;;;4.30;;
11222;SDS011;5668;52.012;8.724;2023-12-20T11:07:58;10.60;;;3.80;;
11222;SDS011;5668;52.012;8.724;2023-12-20T11:10:29;7.43;;;3.90;;
11222;SDS011;5668;52.012;8.724;2023-12-20T11:13:04;9.60;;;3.77;;
11222;SDS011;5668;52.012;8.724;2023-12-20T11:15:36;9.10;;;3.70;;
11222;SDS011;5668;52.012;8.724;2023-12-20T11:18:04;10.40;;;4.60;;
11222;SDS011;5668;52.012;8.724;2023-12-20T11:20:36;10.73;;;4.10;;
11222;SDS011;5668;52.012;8.724;2023-12-20T11:23:04;11.67;;;3.93;;
11222;SDS011;5668;52.012;8.724;2023-12-20T11:25:38;10.13;;;3.80;;
11222;SDS011;5668;52.012;8.724;2023-12-20T11:28:15;11.77;;;4.33;;
11222;SDS011;5668;52.012;8.724;2023-12-20T11:30:46;12.13;;;4.23;;
11222;SDS011;5668;52.012;8.724;2023-12-20T11:33:15;11.67;;;4.43;;
11222;SDS011;5668;52.012;8.724;2023-12-20T11:35:47;12.57;;;4.07;;
11222;SDS011;5668;52.012;8.724;2023-12-20T11:38:14;12.90;;;4.13;;
11222;SDS011;5668;52.012;8.724;2023-12-20T11:40:41;12.97;;;4.27;;
11222;SDS011;5668;52.012;8.724;2023-12-20T11:43:09;11.27;;;3.67;;
11222;SDS011;5668;52.012;8.724;2023-12-20T11:45:38;8.17;;;3.80;;
11222;SDS011;5668;52.012;8.724;2023-12-20T11:48:16;10.20;;;3.83;;
11222;SDS011;5668;52.012;8.724;2023-12-20T11:50:44;8.90;;;3.67;;
11222;SDS011;5668;52.012;8.724;2023-12-20T11:53:11;10.43;;;3.77;;
11222;SDS011;5668;52.012;8.724;2023-12-20T11:55:39;8.73;;;3.80;;
11222;SDS011;5668;52.012;8.724;2023-12-20T11:58:06;12.03;;;3.87;;
11222;SDS011;5668;52.012;8.724;2023-12-20T12:00:34;14.47;;;3.67;;
11222;SDS011;5668;52.012;8.724;2023-12-20T12:03:03;12.07;;;4.23;;
11222;SDS011;5668;52.012;8.724;2023-12-20T12:05:30;9.10;;;3.53;;
11222;SDS011;5668;52.012;8.724;2023-12-20T12:07:58;7.63;;;3.60;;
11222;SDS011;5668;52.012;8.724;2023-12-20T12:10:25;7.87;;;3.23;;
11222;SDS011;5668;52.012;8.724;2023-12-20T12:12:52;12.50;;;3.30;;
11222;SDS011;5668;52.012;8.724;2023-12-20T12:15:20;8.40;;;3.10;;
11222;SDS011;5668;52.012;8.724;2023-12-20T12:17:52;7.37;;;3.10;;
11222;SDS011;5668;52.012;8.724;2023-12-20T12:20:22;9.10;;;3.17;;
11222;SDS011;5668;52.012;8.724;2023-12-20T12:22:57;7.57;;;2.93;;
11222;SDS011;5668;52.012;8.724;2023-12-20T12:25:25;8.83;;;3.03;;
11222;SDS011;5668;52.012;8.724;2023-12-20T12:27:52;8.70;;;2.87;;
11222;SDS011;5668;52.012;8.724;2023-12-20T12:30:20;9.00;;;2.77;;
11222;SDS011;5668;52.012;8.724;2023-12-20T12:32:47;8.37;;;3.13;;
11222;SDS011;5668;52.012;8.724;2023-12-20T12:35:14;11.00;;;3.10;;
11222;SDS011;5668;52.012;8.724;2023-12-20T12:37:43;8.23;;;3.20;;
11222;SDS011;5668;52.012;8.724;2023-12-20T12:40:11;10.33;;;3.30;;
11222;SDS011;5668;52.012;8.724;2023-12-20T12:42:41;8.43;;;3.20;;
11222;SDS011;5668;52.012;8.724;2023-12-20T12:45:09;6.83;;;3.07;;
11222;SDS011;5668;52.012;8.724;2023-12-20T12:47:37;7.83;;;3.10;;
11222;SDS011;5668;52.012;8.724;2023-12-20T12:50:06;7.43;;;3.07;;
11222;SDS011;5668;52.012;8.724;2023-12-20T12:52:38;6.37;;;2.87;;
11222;SDS011;5668;52.012;8.724;2023-12-20T12:55:06;9.27;;;3.20;;
11222;SDS011;5668;52.012;8.724;2023-12-20T12:57:34;9.03;;;3.10;;
11222;SDS011;5668;52.012;8.724;2023-12-20T13:00:01;7.30;;;3.10;;
11222;SDS011;5668;52.012;8.724;2023-12-20T13:02:30;7.43;;;3.07;;
11222;SDS011;5668;52.012;8.724;2023-12-20T13:04:57;14.03;;;3.60;;
11222;SDS011;5668;52.012;8.724;2023-12-20T13:07:26;5.57;;;2.60;;
11222;SDS011;5668;52.012;8.724;2023-12-20T13:09:53;7.80;;;3.13;;
11222;SDS011;5668;52.012;8.724;2023-12-20T13:12:21;8.30;;;2.83;;
11222;SDS011;5668;52.012;8.724;2023-12-20T13:14:48;8.50;;;3.23;;
11222;SDS011;5668;52.012;8.724;2023-12-20T13:17:16;10.17;;;3.37;;
11222;SDS011;5668;52.012;8.724;2023-12-20T13:19:43;10.50;;;3.70;;
11222;SDS011;5668;52.012;8.724;2023-12-20T13:22:10;8.37;;;3.30;;
11222;SDS011;5668;52.012;8.724;2023-12-20T13:24:37;8.63;;;3.47;;
11222;SDS011;5668;52.012;8.724;2023-12-20T13:27:05;7.50;;;2.80;;
11222;SDS011;5668;52.012;8.724;2023-12-20T13:29:34;5.53;;;1.93;;
11222;SDS011;5668;52.012;8.724;2023-12-20T13:32:01;4.53;;;1.73;;
11222;SDS011;5668;52.012;8.724;2023-12-20T13:34:28;1.53;;;1.10;;
11222;SDS011;5668;52.012;8.724;2023-12-20T13:36:56;1.67;;;1.13;;
11222;SDS011;5668;52.012;8.724;2023-12-20T13:39:23;2.60;;;1.30;;
11222;SDS011;5668;52.012;8.724;2023-12-20T13:41:50;3.70;;;1.43;;
11222;SDS011;5668;52.012;8.724;2023-12-20T13:44:18;3.70;;;1.40;;
11222;SDS011;5668;52.012;8.724;2023-12-20T13:46:46;2.60;;;1.30;;
11222;SDS011;5668;52.012;8.724;2023-12-20T13:49:15;3.20;;;1.50;;
11222;SDS011;5668;52.012;8.724;2023-12-20T13:51:42;3.33;;;1.27;;
11222;SDS011;5668;52.012;8.724;2023-12-20T13:54:09;4.30;;;1.40;;
11222;SDS011;5668;52.012;8.724;2023-12-20T13:56:37;3.70;;;1.30;;
11222;SDS011;5668;52.012;8.724;2023-12-20T13:59:04;4.13;;;1.40;;
11222;SDS011;5668;52.012;8.724;2023-12-20T14:01:31;5.03;;;1.67;;
11222;SDS011;5668;52.012;8.724;2023-12-20T14:04:00;5.73;;;1.40;;
11222;SDS011;5668;52.012;8.724;2023-12-20T14:06:27;3.53;;;1.30;;
11222;SDS011;5668;52.012;8.724;2023-12-20T14:08:54;5.60;;;1.50;;
11222;SDS011;5668;52.012;8.724;2023-12-20T14:11:21;3.07;;;1.03;;
11222;SDS011;5668;52.012;8.724;2023-12-20T14:13:49;3.97;;;1.37;;
11222;SDS011;5668;52.012;8.724;2023-12-20T14:16:16;2.33;;;1.20;;
11222;SDS011;5668;52.012;8.724;2023-12-20T14:18:44;3.40;;;1.30;;
11222;SDS011;5668;52.012;8.724;2023-12-20T14:21:12;4.33;;;1.30;;
11222;SDS011;5668;52.012;8.724;2023-12-20T14:23:39;4.07;;;1.50;;
11222;SDS011;5668;52.012;8.724;2023-12-20T14:26:06;4.90;;;1.60;;
11222;SDS011;5668;52.012;8.724;2023-12-20T14:28:39;4.23;;;1.30;;
11222;SDS011;5668;52.012;8.724;2023-12-20T14:31:07;4.77;;;1.40;;
11222;SDS011;5668;52.012;8.724;2023-12-20T14:33:35;3.73;;;1.30;;
11222;SDS011;5668;52.012;8.724;2023-12-20T14:36:04;3.27;;;1.20;;
11222;SDS011;5668;52.012;8.724;2023-12-20T14:38:33;3.20;;;1.30;;
11222;SDS011;5668;52.012;8.724;2023-12-20T14:41:00;5.43;;;1.50;;
11222;SDS011;5668;52.012;8.724;2023-12-20T14:43:28;2.70;;;1.10;;
11222;SDS011;5668;52.012;8.724;2023-12-20T14:45:55;4.70;;;1.40;;
11222;SDS011;5668;52.012;8.724;2023-12-20T14:48:22;4.37;;;1.30;;
11222;SDS011;5668;52.012;8.724;2023-12-20T14:50:50;4.43;;;1.30;;
11222;SDS011;5668;52.012;8.724;2023-12-20T14:53:17;6.43;;;1.43;;
11222;SDS011;5668;52.012;8.724;2023-12-20T14:55:46;6.00;;;1.33;;
11222;SDS011;5668;52.012;8.724;2023-12-20T14:58:13;3.13;;;1.20;;